createdAt,value
2024-01-05T00:00:04.848Z,5.65
2024-01-05T00:02:34.066Z,6.00
2024-01-05T00:05:00.727Z,5.78
2024-01-05T00:07:27.372Z,5.78
2024-01-05T00:09:54.067Z,5.72
2024-01-05T00:12:20.843Z,4.53
2024-01-05T00:14:48.558Z,5.38
2024-01-05T00:17:15.242Z,4.90
2024-01-05T00:19:41.981Z,4.88
2024-01-05T00:22:08.662Z,4.25
2024-01-05T00:24:37.252Z,4.43
2024-01-05T00:27:04.745Z,4.60
2024-01-05T00:29:31.473Z,4.55
2024-01-05T00:31:58.003Z,4.68
2024-01-05T00:34:24.795Z,5.10
2024-01-05T00:36:51.415Z,3.90
2024-01-05T00:39:18.000Z,4.22
2024-01-05T00:41:48.924Z,4.35
2024-01-05T00:44:15.795Z,4.13
2024-01-05T00:46:42.688Z,5.28
2024-01-05T00:49:09.721Z,4.20
2024-01-05T00:51:36.493Z,3.90
2024-01-05T00:54:03.185Z,4.45
2024-01-05T00:56:29.874Z,4.38
2024-01-05T00:58:56.487Z,5.35
2024-01-05T01:01:23.296Z,4.07
2024-01-05T01:03:50.096Z,3.92
2024-01-05T01:06:16.855Z,4.32
2024-01-05T01:08:43.518Z,5.05
2024-01-05T01:11:15.133Z,4.32
2024-01-05T01:13:42.719Z,4.60
2024-01-05T01:16:09.820Z,4.13
2024-01-05T01:18:36.717Z,4.30
2024-01-05T01:21:03.515Z,4.35
2024-01-05T01:23:30.344Z,4.75
2024-01-05T01:25:57.015Z,3.58
2024-01-05T01:28:23.599Z,4.05
2024-01-05T01:30:50.497Z,3.53
2024-01-05T01:33:17.595Z,3.25
2024-01-05T01:35:44.416Z,4.40
2024-01-05T01:38:11.112Z,3.70
2024-01-05T01:40:37.925Z,3.70
2024-01-05T01:43:04.986Z,3.10
2024-01-05T01:45:31.920Z,3.70
2024-01-05T01:47:58.829Z,4.05
2024-01-05T01:50:26.001Z,2.97
2024-01-05T01:52:53.545Z,3.67
2024-01-05T01:55:20.384Z,3.60
2024-01-05T01:57:47.651Z,3.17
2024-01-05T02:00:17.709Z,2.97
2024-01-05T02:02:47.502Z,3.00
2024-01-05T02:05:14.310Z,3.47
2024-01-05T02:07:42.952Z,3.15
2024-01-05T02:10:09.631Z,3.15
2024-01-05T02:12:36.361Z,3.08
2024-01-05T02:15:03.327Z,2.92
2024-01-05T02:17:31.683Z,3.47
2024-01-05T02:19:58.834Z,3.00
2024-01-05T02:22:30.301Z,2.75
2024-01-05T02:24:58.575Z,2.92
2024-01-05T02:27:26.265Z,3.63
2024-01-05T02:29:52.905Z,3.15
2024-01-05T02:32:19.624Z,3.40
2024-01-05T02:34:46.297Z,2.67
2024-01-05T02:37:13.052Z,3.20
2024-01-05T02:39:39.796Z,4.15
2024-01-05T02:42:06.606Z,3.00
2024-01-05T02:44:33.189Z,3.53
2024-01-05T02:46:59.878Z,3.22
2024-01-05T02:49:26.593Z,3.22
2024-01-05T02:51:53.256Z,3.00
2024-01-05T02:54:19.928Z,3.30
2024-01-05T02:56:46.615Z,2.83
2024-01-05T02:59:13.379Z,2.80
2024-01-05T03:01:40.037Z,2.75
2024-01-05T03:04:06.839Z,2.42
2024-01-05T03:06:33.698Z,3.25
2024-01-05T03:09:00.968Z,2.60
2024-01-05T03:11:27.695Z,2.88
2024-01-05T03:13:54.277Z,2.78
2024-01-05T03:16:20.910Z,2.40
2024-01-05T03:18:47.691Z,2.45
2024-01-05T03:21:14.542Z,2.78
2024-01-05T03:23:41.192Z,2.90
2024-01-05T03:26:10.949Z,2.38
2024-01-05T03:28:39.489Z,2.58
2024-01-05T03:31:11.280Z,2.85
2024-01-05T03:33:38.074Z,3.15
2024-01-05T03:36:05.098Z,2.75
2024-01-05T03:38:31.700Z,2.70
2024-01-05T03:40:58.446Z,2.78
2024-01-05T03:43:25.386Z,2.67
2024-01-05T03:45:52.078Z,2.33
2024-01-05T03:48:18.863Z,3.08
2024-01-05T03:50:45.749Z,2.47
2024-01-05T03:53:12.919Z,3.00
2024-01-05T03:55:39.514Z,2.33
2024-01-05T03:58:07.675Z,3.10
2024-01-05T04:00:34.553Z,2.30
2024-01-05T04:03:01.439Z,1.98
2024-01-05T04:05:28.205Z,1.73
2024-01-05T04:07:54.881Z,2.55
2024-01-05T04:10:21.529Z,2.40
2024-01-05T04:12:48.184Z,2.25
2024-01-05T04:15:15.320Z,2.03
2024-01-05T04:17:42.039Z,1.95
2024-01-05T04:20:10.052Z,2.28
2024-01-05T04:22:37.031Z,2.63
2024-01-05T04:25:03.920Z,2.40
2024-01-05T04:27:30.685Z,2.10
2024-01-05T04:29:57.540Z,2.33
2024-01-05T04:32:24.731Z,2.13
2024-01-05T04:34:51.304Z,2.15
2024-01-05T04:37:17.967Z,2.65
2024-01-05T04:39:44.954Z,2.22
2024-01-05T04:42:13.091Z,2.70
2024-01-05T04:44:39.868Z,2.67
2024-01-05T04:47:06.505Z,2.58
2024-01-05T04:49:35.456Z,2.25
2024-01-05T04:52:02.347Z,2.00
2024-01-05T04:54:29.241Z,2.10
2024-01-05T04:56:55.990Z,2.28
2024-01-05T04:59:23.405Z,2.17
2024-01-05T05:01:50.093Z,1.95
2024-01-05T05:04:18.961Z,2.75
2024-01-05T05:06:45.849Z,2.28
2024-01-05T05:09:13.862Z,2.42
2024-01-05T05:11:41.542Z,1.92
2024-01-05T05:14:08.443Z,1.83
2024-01-05T05:16:36.383Z,2.40
2024-01-05T05:19:03.369Z,2.50
2024-01-05T05:21:30.345Z,2.03
2024-01-05T05:23:57.202Z,1.80
2024-01-05T05:26:24.182Z,2.67
2024-01-05T05:28:50.875Z,2.10
2024-01-05T05:31:17.723Z,1.75
2024-01-05T05:33:44.476Z,1.95
2024-01-05T05:36:11.194Z,2.17
2024-01-05T05:38:37.850Z,1.55
2024-01-05T05:41:04.656Z,2.13
2024-01-05T05:43:31.329Z,2.33
2024-01-05T05:45:58.013Z,1.70
2024-01-05T05:48:25.371Z,1.85
2024-01-05T05:50:52.361Z,1.42
2024-01-05T05:53:19.184Z,2.05
2024-01-05T05:55:45.841Z,1.65
2024-01-05T05:58:12.478Z,1.42
2024-01-05T06:00:39.232Z,1.75
2024-01-05T06:03:08.391Z,1.77
2024-01-05T06:05:37.218Z,2.47
2024-01-05T06:08:04.109Z,1.88
2024-01-05T06:10:30.825Z,1.77
2024-01-05T06:12:57.510Z,1.90
2024-01-05T06:15:24.167Z,1.70
2024-01-05T06:17:50.941Z,1.55
2024-01-05T06:20:17.555Z,1.60
2024-01-05T06:22:44.363Z,1.50
2024-01-05T06:25:11.031Z,1.80
2024-01-05T06:27:39.439Z,1.83
2024-01-05T06:30:07.922Z,1.80
2024-01-05T06:32:34.711Z,1.60
2024-01-05T06:35:01.379Z,1.50
2024-01-05T06:37:30.237Z,1.65
2024-01-05T06:39:57.299Z,2.10
2024-01-05T06:42:23.952Z,1.30
2024-01-05T06:44:51.552Z,1.33
2024-01-05T06:47:18.369Z,1.80
2024-01-05T06:49:45.116Z,1.60
2024-01-05T06:52:11.822Z,1.25
2024-01-05T06:54:39.116Z,1.98
2024-01-05T06:57:08.438Z,1.33
2024-01-05T06:59:37.590Z,1.42
2024-01-05T07:02:05.219Z,2.25
2024-01-05T07:04:32.048Z,1.70
2024-01-05T07:06:58.757Z,1.77
2024-01-05T07:09:26.161Z,1.42
2024-01-05T07:11:53.252Z,1.02
2024-01-05T07:14:19.933Z,0.77
2024-01-05T07:16:48.389Z,0.85
2024-01-05T07:19:15.898Z,0.88
2024-01-05T07:21:45.560Z,0.60
2024-01-05T07:24:19.869Z,0.82
2024-01-05T07:26:46.611Z,0.68
2024-01-05T07:29:13.381Z,0.63
2024-01-05T07:31:40.021Z,0.50
2024-01-05T07:34:06.985Z,0.57
2024-01-05T07:36:34.030Z,1.00
2024-01-05T07:39:01.018Z,0.32
2024-01-05T07:41:28.461Z,0.57
2024-01-05T07:43:55.223Z,0.60
2024-01-05T07:46:23.515Z,0.50
2024-01-05T07:48:50.322Z,0.47
2024-01-05T07:51:20.434Z,0.40
2024-01-05T07:53:49.742Z,0.45
2024-01-05T07:56:18.463Z,0.50
2024-01-05T07:58:45.757Z,0.40
2024-01-05T08:01:19.455Z,0.30
2024-01-05T08:03:47.118Z,0.50
2024-01-05T08:06:17.719Z,0.28
2024-01-05T08:08:48.746Z,0.32
2024-01-05T08:11:15.684Z,0.30
2024-01-05T08:13:43.457Z,0.28
2024-01-05T08:16:11.343Z,0.32
2024-01-05T08:18:38.879Z,0.70
2024-01-05T08:21:06.210Z,0.50
2024-01-05T08:23:33.254Z,0.45
2024-01-05T08:26:00.097Z,0.50
2024-01-05T08:28:27.249Z,0.65
2024-01-05T08:30:57.334Z,0.40
2024-01-05T08:33:24.501Z,0.50
2024-01-05T08:35:51.612Z,0.47
2024-01-05T08:38:18.228Z,0.40
2024-01-05T08:40:45.738Z,0.30
2024-01-05T08:43:12.575Z,0.20
2024-01-05T08:45:39.488Z,0.35
2024-01-05T08:48:06.612Z,0.70
2024-01-05T08:50:35.852Z,1.27
2024-01-05T08:53:04.539Z,0.50
2024-01-05T08:55:31.206Z,0.32
2024-01-05T08:57:58.389Z,0.30
2024-01-05T09:00:26.110Z,0.50
2024-01-05T09:02:53.268Z,0.43
2024-01-05T09:05:20.541Z,0.30
2024-01-05T09:07:48.776Z,0.30
2024-01-05T09:10:16.400Z,0.40
2024-01-05T09:12:43.154Z,0.20
2024-01-05T09:15:10.122Z,0.50
2024-01-05T09:17:36.937Z,0.20
2024-01-05T09:20:04.882Z,0.68
2024-01-05T09:22:32.001Z,0.30
2024-01-05T09:24:58.841Z,0.70
2024-01-05T09:27:25.578Z,0.55
2024-01-05T09:29:52.334Z,0.20
2024-01-05T09:32:19.216Z,0.50
2024-01-05T09:34:45.944Z,0.30
2024-01-05T09:37:12.589Z,0.20
2024-01-05T09:39:39.407Z,0.30
2024-01-05T09:42:07.109Z,0.40
2024-01-05T09:44:33.873Z,0.38
2024-01-05T09:47:00.595Z,0.43
2024-01-05T09:49:27.502Z,0.20
2024-01-05T09:51:57.091Z,0.30
2024-01-05T09:54:23.831Z,0.40
2024-01-05T09:56:51.248Z,0.40
2024-01-05T09:59:20.113Z,0.30
2024-01-05T10:01:50.995Z,0.70
2024-01-05T10:04:20.186Z,0.30
2024-01-05T10:06:46.954Z,0.55
2024-01-05T10:09:13.677Z,0.35
2024-01-05T10:11:43.324Z,0.40
2024-01-05T10:14:13.336Z,0.40
2024-01-05T10:16:40.632Z,0.55
2024-01-05T10:19:16.007Z,0.40
2024-01-05T10:21:45.286Z,0.57
2024-01-05T10:24:24.469Z,0.60
2024-01-05T10:27:05.640Z,0.35
2024-01-05T10:29:34.019Z,0.60
2024-01-05T10:32:14.259Z,0.52
2024-01-05T10:34:51.414Z,0.60
2024-01-05T10:37:20.292Z,0.65
2024-01-05T10:39:48.313Z,0.70
2024-01-05T10:42:36.795Z,0.90
2024-01-05T10:45:04.342Z,0.80
2024-01-05T10:47:31.653Z,0.70
2024-01-05T10:49:59.093Z,0.77
2024-01-05T10:52:33.369Z,0.63
2024-01-05T10:55:04.255Z,1.02
2024-01-05T10:57:31.896Z,0.95
2024-01-05T10:59:58.633Z,0.82
2024-01-05T11:02:41.750Z,1.10
2024-01-05T11:05:14.829Z,0.75
2024-01-05T11:07:43.467Z,0.82
2024-01-05T11:10:16.234Z,0.93
2024-01-05T11:15:42.561Z,1.00
2024-01-05T11:18:48.045Z,1.27
2024-01-05T11:21:20.488Z,1.00
2024-01-05T11:23:48.542Z,1.30
2024-01-05T11:26:33.385Z,1.08
2024-01-05T11:29:00.016Z,1.00
2024-01-05T11:31:52.552Z,0.82
2024-01-05T11:34:37.213Z,0.82
2024-01-05T11:37:07.555Z,1.00
2024-01-05T11:39:54.793Z,0.90
2024-01-05T11:42:24.647Z,0.82
2024-01-05T11:44:56.076Z,0.70
2024-01-05T11:47:42.503Z,0.80
2024-01-05T11:50:29.341Z,0.90
2024-01-05T11:53:18.008Z,0.55
2024-01-05T11:55:52.813Z,0.73
2024-01-05T11:58:22.050Z,0.77
2024-01-05T12:00:50.246Z,1.00
2024-01-05T12:03:18.530Z,0.90
2024-01-05T12:05:51.059Z,0.60
2024-01-05T12:08:19.622Z,0.90
2024-01-05T12:10:46.285Z,0.98
2024-01-05T12:13:12.904Z,0.90
2024-01-05T12:15:47.082Z,0.98
2024-01-05T12:18:27.896Z,1.15
2024-01-05T12:21:02.758Z,1.00
2024-01-05T12:23:31.667Z,1.20
2024-01-05T12:26:05.793Z,1.00
2024-01-05T12:28:34.863Z,1.08
2024-01-05T12:31:03.419Z,0.95
2024-01-05T12:33:32.510Z,1.08
2024-01-05T12:35:59.322Z,1.33
2024-01-05T12:38:29.696Z,1.30
2024-01-05T12:41:10.836Z,1.08
2024-01-05T12:43:38.074Z,1.27
2024-01-05T12:46:06.386Z,1.40
2024-01-05T12:48:34.264Z,1.63
2024-01-05T12:51:07.953Z,1.20
2024-01-05T12:53:35.399Z,1.00
2024-01-05T12:56:11.959Z,1.20
2024-01-05T12:58:43.295Z,1.10
2024-01-05T13:01:18.647Z,1.10
2024-01-05T13:03:53.753Z,1.30
2024-01-05T13:06:23.170Z,1.67
2024-01-05T13:08:50.428Z,1.23
2024-01-05T13:11:21.403Z,1.40
2024-01-05T13:13:52.574Z,1.20
2024-01-05T13:16:19.603Z,1.83
2024-01-05T13:18:46.730Z,1.63
2024-01-05T13:21:13.938Z,1.60
2024-01-05T13:23:42.037Z,1.55
2024-01-05T13:26:09.015Z,1.75
2024-01-05T13:28:36.953Z,2.00
2024-01-05T13:31:04.743Z,2.00
2024-01-05T13:33:32.719Z,1.95
2024-01-05T13:35:59.418Z,2.22
2024-01-05T13:38:26.058Z,2.30
2024-01-05T13:40:52.679Z,2.00
2024-01-05T13:43:19.332Z,2.38
2024-01-05T13:45:46.835Z,2.30
2024-01-05T13:48:13.639Z,2.60
2024-01-05T13:50:40.362Z,2.65
2024-01-05T13:53:12.098Z,2.95
2024-01-05T13:55:38.959Z,2.50
2024-01-05T13:58:05.629Z,2.70
2024-01-05T14:00:32.352Z,2.90
2024-01-05T14:02:59.195Z,3.15
2024-01-05T14:05:25.975Z,2.88
2024-01-05T14:07:52.667Z,3.13
2024-01-05T14:10:19.290Z,3.08
2024-01-05T14:12:46.285Z,3.33
2024-01-05T14:15:14.720Z,3.03
2024-01-05T14:17:41.538Z,3.00
2024-01-05T14:20:10.064Z,3.88
2024-01-05T14:22:37.144Z,5.13
2024-01-05T14:25:05.767Z,4.07
2024-01-05T14:27:32.681Z,4.53
2024-01-05T14:29:59.761Z,4.88
2024-01-05T14:32:26.505Z,5.68
2024-01-05T14:34:53.327Z,5.00
2024-01-05T14:37:20.135Z,4.50
2024-01-05T14:39:46.854Z,4.82
2024-01-05T14:42:13.978Z,4.80
2024-01-05T14:44:40.892Z,4.93
2024-01-05T14:47:08.735Z,6.88
2024-01-05T14:49:35.543Z,8.55
2024-01-05T14:52:02.436Z,5.22
2024-01-05T14:54:29.790Z,6.10
2024-01-05T14:56:56.617Z,5.80
2024-01-05T14:59:23.516Z,5.35
2024-01-05T15:01:50.569Z,5.65
2024-01-05T15:04:17.808Z,5.22
2024-01-05T15:06:44.650Z,5.95
2024-01-05T15:09:13.144Z,6.13
2024-01-05T15:11:40.898Z,4.97
2024-01-05T15:14:08.066Z,6.22
2024-01-05T15:16:43.992Z,4.97
2024-01-05T15:19:11.615Z,4.70
2024-01-05T15:21:38.470Z,5.65
2024-01-05T15:24:05.542Z,4.90
2024-01-05T15:26:32.467Z,4.72
2024-01-05T15:29:03.966Z,4.78
2024-01-05T15:31:31.209Z,5.07
2024-01-05T15:33:58.221Z,4.57
2024-01-05T15:36:25.715Z,5.35
2024-01-05T15:38:53.016Z,4.97
2024-01-05T15:41:20.724Z,5.53
2024-01-05T15:43:49.114Z,5.65
2024-01-05T15:46:17.855Z,5.80
2024-01-05T15:48:45.109Z,5.88
2024-01-05T15:51:16.768Z,6.82
2024-01-05T15:53:44.069Z,6.75
2024-01-05T15:56:11.525Z,6.35
2024-01-05T15:58:39.504Z,8.02
2024-01-05T16:01:07.244Z,6.38
2024-01-05T16:03:34.417Z,7.50
2024-01-05T16:06:01.603Z,7.72
2024-01-05T16:08:29.243Z,9.65
2024-01-05T16:10:56.824Z,8.20
2024-01-05T16:13:24.060Z,7.93
2024-01-05T16:15:50.876Z,7.53
2024-01-05T16:18:18.438Z,8.18
2024-01-05T16:20:47.249Z,7.82
2024-01-05T16:23:14.156Z,8.57
2024-01-05T16:25:44.146Z,8.25
2024-01-05T16:28:10.873Z,8.43
2024-01-05T16:30:38.362Z,8.80
2024-01-05T16:33:05.843Z,9.50
2024-01-05T16:35:32.940Z,9.23
2024-01-05T16:37:59.774Z,9.10
2024-01-05T16:40:26.678Z,9.88
2024-01-05T16:42:53.469Z,10.50
2024-01-05T16:45:20.381Z,11.82
2024-01-05T16:47:47.235Z,11.77
2024-01-05T16:50:17.102Z,12.27
2024-01-05T16:52:44.614Z,12.95
2024-01-05T16:55:11.375Z,13.20
2024-01-05T16:57:38.330Z,14.27
2024-01-05T17:00:05.960Z,12.98
2024-01-05T17:02:33.354Z,12.63
2024-01-05T17:05:00.442Z,11.75
2024-01-05T17:07:28.254Z,11.75
2024-01-05T17:09:55.552Z,11.45
2024-01-05T17:12:22.449Z,12.20
2024-01-05T17:14:49.388Z,11.93
2024-01-05T17:17:16.201Z,10.50
2024-01-05T17:19:43.209Z,11.60
2024-01-05T17:22:10.872Z,11.00
2024-01-05T17:24:40.916Z,10.57
2024-01-05T17:27:14.011Z,11.15
2024-01-05T17:29:41.091Z,10.02
2024-01-05T17:32:07.934Z,10.23
2024-01-05T17:34:35.399Z,10.70
2024-01-05T17:37:02.221Z,8.23
2024-01-05T17:39:29.094Z,8.73
2024-01-05T17:41:55.930Z,8.63
2024-01-05T17:44:22.770Z,7.43
2024-01-05T17:46:49.630Z,8.52
2024-01-05T17:49:16.612Z,9.10
2024-01-05T17:51:43.515Z,7.45
2024-01-05T17:54:10.282Z,6.80
2024-01-05T17:56:37.312Z,6.18
2024-01-05T17:59:04.735Z,7.63
2024-01-05T18:01:33.699Z,7.93
2024-01-05T18:04:00.908Z,8.02
2024-01-05T18:06:28.251Z,8.73
2024-01-05T18:08:55.123Z,7.70
2024-01-05T18:11:25.997Z,10.40
2024-01-05T18:13:53.920Z,10.40
2024-01-05T18:16:25.305Z,10.73
2024-01-05T18:18:52.613Z,11.50
2024-01-05T18:21:22.417Z,12.35
2024-01-05T18:23:49.301Z,12.05
2024-01-05T18:26:23.998Z,20.38
2024-01-05T18:28:51.745Z,25.10
2024-01-05T18:31:30.098Z,23.27
2024-01-05T18:33:57.510Z,22.20
2024-01-05T18:36:24.719Z,29.83
2024-01-05T18:38:51.692Z,25.67
2024-01-05T18:41:34.888Z,28.48
2024-01-05T18:44:02.206Z,14.35
2024-01-05T18:46:29.419Z,18.85
2024-01-05T18:48:56.327Z,34.95
2024-01-05T18:51:23.245Z,12.57
2024-01-05T18:53:50.079Z,11.77
2024-01-05T18:56:16.977Z,28.55
2024-01-05T18:58:43.849Z,14.90
2024-01-05T19:01:11.810Z,13.25
2024-01-05T19:03:38.853Z,18.92
2024-01-05T19:06:06.331Z,11.52
2024-01-05T19:08:33.442Z,12.05
2024-01-05T19:11:00.148Z,12.45
2024-01-05T19:13:27.097Z,12.65
2024-01-05T19:15:53.985Z,11.93
2024-01-05T19:18:20.990Z,12.02
2024-01-05T19:20:47.854Z,12.70
2024-01-05T19:23:14.739Z,14.48
2024-01-05T19:25:41.551Z,12.00
2024-01-05T19:28:08.470Z,12.13
2024-01-05T19:30:35.347Z,13.73
2024-01-05T19:33:02.152Z,13.38
2024-01-05T19:35:28.886Z,14.77
2024-01-05T19:37:56.745Z,13.30
2024-01-05T19:40:23.441Z,13.98
2024-01-05T19:42:50.059Z,13.95
2024-01-05T19:45:17.029Z,13.32
2024-01-05T19:47:45.533Z,14.15
2024-01-05T19:50:12.292Z,14.90
2024-01-05T19:52:38.962Z,13.18
2024-01-05T19:55:08.309Z,13.32
2024-01-05T19:57:35.987Z,13.40
2024-01-05T20:00:04.242Z,26.70
2024-01-05T20:02:31.201Z,30.15
2024-01-05T20:04:58.002Z,19.05
2024-01-05T20:07:25.826Z,19.42
2024-01-05T20:09:53.776Z,15.82
2024-01-05T20:12:20.889Z,14.05
2024-01-05T20:14:47.884Z,18.02
2024-01-05T20:17:14.742Z,14.80
2024-01-05T20:19:42.596Z,13.85
2024-01-05T20:22:09.644Z,13.70
2024-01-05T20:24:36.471Z,12.88
2024-01-05T20:27:03.999Z,12.85
2024-01-05T20:29:31.086Z,13.57
2024-01-05T20:31:57.893Z,14.88
2024-01-05T20:34:26.073Z,14.23
2024-01-05T20:36:55.296Z,15.95
2024-01-05T20:39:22.321Z,16.60
2024-01-05T20:41:50.385Z,15.95
2024-01-05T20:44:18.397Z,16.08
2024-01-05T20:46:48.361Z,15.07
2024-01-05T20:49:18.510Z,16.63
2024-01-05T20:51:46.759Z,15.50
2024-01-05T20:54:14.441Z,16.90
2024-01-05T20:56:41.315Z,15.85
2024-01-05T20:59:08.108Z,15.82
2024-01-05T21:01:41.439Z,19.33
2024-01-05T21:04:09.044Z,17.42
2024-01-05T21:06:44.817Z,16.48
2024-01-05T21:09:11.691Z,17.75
2024-01-05T21:11:38.594Z,26.17
2024-01-05T21:14:05.288Z,25.10
2024-01-05T21:16:31.956Z,22.83
2024-01-05T21:18:59.398Z,24.05
2024-01-05T21:21:28.782Z,24.02
2024-01-05T21:23:57.119Z,23.92
2024-01-05T21:26:24.136Z,23.73
2024-01-05T21:28:50.984Z,21.73
2024-01-05T21:31:17.927Z,23.25
2024-01-05T21:33:49.763Z,23.05
2024-01-05T21:36:16.680Z,26.27
2024-01-05T21:38:43.875Z,25.33
2024-01-05T21:41:10.708Z,25.77
2024-01-05T21:43:37.461Z,23.98
2024-01-05T21:46:04.397Z,27.55
2024-01-05T21:48:33.240Z,30.55
2024-01-05T21:51:00.367Z,28.10
2024-01-05T21:53:27.103Z,26.85
2024-01-05T21:55:54.804Z,26.77
2024-01-05T21:58:21.999Z,26.20
2024-01-05T22:00:49.081Z,28.80
2024-01-05T22:03:18.956Z,27.25
2024-01-05T22:05:46.536Z,25.80
2024-01-05T22:08:13.251Z,25.73
2024-01-05T22:10:39.869Z,26.13
2024-01-05T22:13:07.785Z,24.42
2024-01-05T22:15:34.794Z,26.40
2024-01-05T22:18:04.268Z,24.17
2024-01-05T22:20:31.057Z,22.65
2024-01-05T22:22:57.763Z,26.38
2024-01-05T22:25:24.469Z,25.95
2024-01-05T22:27:51.433Z,24.58
2024-01-05T22:30:18.694Z,24.58
2024-01-05T22:32:45.676Z,23.58
2024-01-05T22:35:12.747Z,21.73
2024-01-05T22:37:39.460Z,21.27
2024-01-05T22:40:07.382Z,23.92
2024-01-05T22:42:34.351Z,21.20
2024-01-05T22:45:01.046Z,20.95
2024-01-05T22:47:27.679Z,20.67
2024-01-05T22:49:54.542Z,20.80
2024-01-05T22:52:21.242Z,20.70
2024-01-05T22:54:47.877Z,19.60
2024-01-05T22:57:15.098Z,18.27
2024-01-05T22:59:41.823Z,20.50
2024-01-05T23:02:08.463Z,18.42
2024-01-05T23:04:35.661Z,17.83
2024-01-05T23:07:02.479Z,18.50
2024-01-05T23:09:29.304Z,19.88
2024-01-05T23:11:55.941Z,19.33
2024-01-05T23:14:22.668Z,18.83
2024-01-05T23:16:50.922Z,18.35
2024-01-05T23:19:17.639Z,19.38
2024-01-05T23:21:45.229Z,18.92
2024-01-05T23:24:11.951Z,19.95
2024-01-05T23:26:38.629Z,17.90
2024-01-05T23:29:05.344Z,18.35
2024-01-05T23:31:38.727Z,18.55
2024-01-05T23:34:15.026Z,20.00
2024-01-05T23:36:43.505Z,18.60
2024-01-05T23:39:10.203Z,21.50
2024-01-05T23:41:40.112Z,18.08
2024-01-05T23:44:08.371Z,19.35
2024-01-05T23:46:35.083Z,19.23
2024-01-05T23:49:01.843Z,19.90
2024-01-05T23:51:29.061Z,21.00
2024-01-05T23:53:56.388Z,19.88
2024-01-05T23:56:22.970Z,21.38
2024-01-05T23:58:49.610Z,20.50
